sensor_id;sensor_type;location;lat;lon;timestamp;pressure;altitude;pressure_sealevel;temperature;humidity
42415;BME280;28058;46.344;17.786;2022-08-19T00:01:59;118336.50;;;-144.97;79.28
42415;BME280;28058;46.344;17.786;2022-08-19T00:04:29;118336.50;;;-144.97;81.90
42415;BME280;28058;46.344;17.786;2022-08-19T00:06:57;118336.50;;;-144.97;80.95
42415;BME280;28058;46.344;17.786;2022-08-19T00:09:25;118336.50;;;-144.97;80.59
42415;BME280;28058;46.344;17.786;2022-08-19T00:11:53;118336.50;;;-144.97;81.53
42415;BME280;28058;46.344;17.786;2022-08-19T00:14:23;118336.50;;;-144.97;83.41
42415;BME280;28058;46.344;17.786;2022-08-19T00:16:52;118336.50;;;-144.97;82.07
42415;BME280;28058;46.344;17.786;2022-08-19T00:19:21;118336.50;;;-144.97;82.28
42415;BME280;28058;46.344;17.786;2022-08-19T00:21:48;118336.50;;;-144.97;81.82
42415;BME280;28058;46.344;17.786;2022-08-19T00:24:16;118336.50;;;-144.97;83.17
42415;BME280;28058;46.344;17.786;2022-08-19T00:26:44;118336.50;;;-144.97;83.03
42415;BME280;28058;46.344;17.786;2022-08-19T00:29:14;118336.50;;;-144.97;83.36
42415;BME280;28058;46.344;17.786;2022-08-19T00:31:41;118336.50;;;-144.97;84.00
42415;BME280;28058;46.344;17.786;2022-08-19T00:34:10;118336.50;;;-144.97;83.34
42415;BME280;28058;46.344;17.786;2022-08-19T00:36:39;118336.50;;;-144.97;82.59
42415;BME280;28058;46.344;17.786;2022-08-19T00:39:07;118336.50;;;-144.97;83.10
42415;BME280;28058;46.344;17.786;2022-08-19T00:41:34;118336.50;;;-144.97;84.32
42415;BME280;28058;46.344;17.786;2022-08-19T00:44:09;118336.50;;;-144.97;83.55
42415;BME280;28058;46.344;17.786;2022-08-19T00:46:39;118336.50;;;-144.97;82.60
42415;BME280;28058;46.344;17.786;2022-08-19T00:49:09;118336.50;;;-144.97;84.02
42415;BME280;28058;46.344;17.786;2022-08-19T00:51:42;118336.50;;;-144.97;84.38
42415;BME280;28058;46.344;17.786;2022-08-19T00:54:11;118336.50;;;-144.97;84.33
42415;BME280;28058;46.344;17.786;2022-08-19T00:56:38;118336.50;;;-144.97;82.95
42415;BME280;28058;46.344;17.786;2022-08-19T00:59:07;118336.50;;;-144.97;82.65
42415;BME280;28058;46.344;17.786;2022-08-19T01:01:40;118336.50;;;-144.97;82.79
42415;BME280;28058;46.344;17.786;2022-08-19T01:04:08;118336.50;;;-144.97;82.67
42415;BME280;28058;46.344;17.786;2022-08-19T01:06:36;118336.50;;;-144.97;82.61
42415;BME280;28058;46.344;17.786;2022-08-19T01:09:04;118336.50;;;-144.97;83.05
42415;BME280;28058;46.344;17.786;2022-08-19T01:11:34;118336.50;;;-144.97;84.88
42415;BME280;28058;46.344;17.786;2022-08-19T01:14:02;118336.50;;;-144.97;85.40
42415;BME280;28058;46.344;17.786;2022-08-19T01:16:30;118336.50;;;-144.97;87.46
42415;BME280;28058;46.344;17.786;2022-08-19T01:18:58;118336.50;;;-144.97;86.96
42415;BME280;28058;46.344;17.786;2022-08-19T01:23:52;118336.50;;;-144.97;86.84
42415;BME280;28058;46.344;17.786;2022-08-19T01:26:22;118336.50;;;-144.97;88.03
42415;BME280;28058;46.344;17.786;2022-08-19T01:28:51;118336.50;;;-144.97;87.55
42415;BME280;28058;46.344;17.786;2022-08-19T01:31:22;118336.50;;;-144.97;86.44
42415;BME280;28058;46.344;17.786;2022-08-19T01:33:55;118336.50;;;-144.97;86.82
42415;BME280;28058;46.344;17.786;2022-08-19T01:36:36;118336.50;;;-144.97;87.69
42415;BME280;28058;46.344;17.786;2022-08-19T01:39:07;118336.50;;;-144.97;86.57
42415;BME280;28058;46.344;17.786;2022-08-19T01:41:34;118336.50;;;-144.97;88.48
42415;BME280;28058;46.344;17.786;2022-08-19T01:44:02;118336.50;;;-144.97;88.73
42415;BME280;28058;46.344;17.786;2022-08-19T01:46:47;118336.50;;;-144.97;88.38
42415;BME280;28058;46.344;17.786;2022-08-19T01:49:15;118336.50;;;-144.97;87.83
42415;BME280;28058;46.344;17.786;2022-08-19T01:51:42;118336.50;;;-144.97;87.54
42415;BME280;28058;46.344;17.786;2022-08-19T01:54:12;118336.50;;;-144.97;87.80
42415;BME280;28058;46.344;17.786;2022-08-19T01:56:50;118336.50;;;-144.97;88.51
42415;BME280;28058;46.344;17.786;2022-08-19T01:59:20;118336.50;;;-144.97;88.88
42415;BME280;28058;46.344;17.786;2022-08-19T02:01:48;118336.50;;;-144.97;89.91
42415;BME280;28058;46.344;17.786;2022-08-19T02:04:15;118336.50;;;-144.97;89.64
42415;BME280;28058;46.344;17.786;2022-08-19T02:06:42;118336.50;;;-144.97;90.87
42415;BME280;28058;46.344;17.786;2022-08-19T02:09:09;118336.50;;;-144.97;91.08
42415;BME280;28058;46.344;17.786;2022-08-19T02:11:37;118336.50;;;-144.97;91.47
42415;BME280;28058;46.344;17.786;2022-08-19T02:14:07;118336.50;;;-144.97;90.28
42415;BME280;28058;46.344;17.786;2022-08-19T02:16:35;118336.50;;;-144.97;89.99
42415;BME280;28058;46.344;17.786;2022-08-19T02:19:02;118336.50;;;-144.97;90.71
42415;BME280;28058;46.344;17.786;2022-08-19T02:21:30;118336.50;;;-144.97;90.02
42415;BME280;28058;46.344;17.786;2022-08-19T02:23:57;118336.50;;;-144.97;91.11
42415;BME280;28058;46.344;17.786;2022-08-19T02:26:24;118336.50;;;-144.97;92.03
42415;BME280;28058;46.344;17.786;2022-08-19T02:28:53;118336.50;;;-144.97;92.26
42415;BME280;28058;46.344;17.786;2022-08-19T02:31:22;118336.50;;;-144.97;92.54
42415;BME280;28058;46.344;17.786;2022-08-19T02:33:52;118336.50;;;-144.97;93.14
42415;BME280;28058;46.344;17.786;2022-08-19T02:36:22;118336.50;;;-144.97;93.26
42415;BME280;28058;46.344;17.786;2022-08-19T02:38:50;118336.50;;;-144.97;92.69
42415;BME280;28058;46.344;17.786;2022-08-19T02:41:23;118336.50;;;-144.97;93.45
42415;BME280;28058;46.344;17.786;2022-08-19T02:43:55;118336.50;;;-144.97;93.42
42415;BME280;28058;46.344;17.786;2022-08-19T02:46:46;118336.50;;;-144.97;93.86
42415;BME280;28058;46.344;17.786;2022-08-19T02:49:13;118336.50;;;-144.97;95.05
42415;BME280;28058;46.344;17.786;2022-08-19T02:51:44;118336.50;;;-144.97;94.63
42415;BME280;28058;46.344;17.786;2022-08-19T02:54:12;118336.50;;;-144.97;94.72
42415;BME280;28058;46.344;17.786;2022-08-19T02:56:40;118336.50;;;-144.97;95.59
42415;BME280;28058;46.344;17.786;2022-08-19T02:59:08;118336.50;;;-144.97;94.81
42415;BME280;28058;46.344;17.786;2022-08-19T03:01:39;118336.50;;;-144.97;94.93
42415;BME280;28058;46.344;17.786;2022-08-19T03:04:08;118336.50;;;-144.97;95.68
42415;BME280;28058;46.344;17.786;2022-08-19T03:06:37;118336.50;;;-144.97;95.89
42415;BME280;28058;46.344;17.786;2022-08-19T03:09:04;118336.50;;;-144.97;96.48
42415;BME280;28058;46.344;17.786;2022-08-19T03:11:33;118336.50;;;-144.97;96.74
42415;BME280;28058;46.344;17.786;2022-08-19T03:14:00;118336.50;;;-144.97;96.32
42415;BME280;28058;46.344;17.786;2022-08-19T03:16:30;118336.50;;;-144.97;96.89
42415;BME280;28058;46.344;17.786;2022-08-19T03:18:58;118336.50;;;-144.97;96.15
42415;BME280;28058;46.344;17.786;2022-08-19T03:21:30;118336.50;;;-144.97;96.40
42415;BME280;28058;46.344;17.786;2022-08-19T03:24:00;118336.50;;;-144.97;96.41
42415;BME280;28058;46.344;17.786;2022-08-19T03:26:27;118336.50;;;-144.97;96.98
42415;BME280;28058;46.344;17.786;2022-08-19T03:28:55;118336.50;;;-144.97;99.00
42415;BME280;28058;46.344;17.786;2022-08-19T03:31:26;118336.50;;;-144.97;100.00
42415;BME280;28058;46.344;17.786;2022-08-19T03:34:17;118336.50;;;-144.97;100.00
42415;BME280;28058;46.344;17.786;2022-08-19T03:36:46;118336.50;;;-144.97;100.00
42415;BME280;28058;46.344;17.786;2022-08-19T03:39:14;118336.50;;;-144.97;100.00
42415;BME280;28058;46.344;17.786;2022-08-19T03:41:43;118336.50;;;-144.97;100.00
42415;BME280;28058;46.344;17.786;2022-08-19T03:44:16;118336.50;;;-144.97;99.84
42415;BME280;28058;46.344;17.786;2022-08-19T03:46:48;118336.50;;;-144.97;99.19
42415;BME280;28058;46.344;17.786;2022-08-19T03:49:17;118336.50;;;-144.97;99.39
42415;BME280;28058;46.344;17.786;2022-08-19T03:51:46;118336.50;;;-144.97;99.79
42415;BME280;28058;46.344;17.786;2022-08-19T03:54:17;118336.50;;;-144.97;99.97
42415;BME280;28058;46.344;17.786;2022-08-19T03:56:48;118336.50;;;-144.97;100.00
42415;BME280;28058;46.344;17.786;2022-08-19T03:59:30;118336.50;;;-144.97;100.00
42415;BME280;28058;46.344;17.786;2022-08-19T04:01:59;118336.50;;;-144.97;99.86
42415;BME280;28058;46.344;17.786;2022-08-19T04:04:26;118336.50;;;-144.97;99.89
42415;BME280;28058;46.344;17.786;2022-08-19T04:06:55;118336.50;;;-144.97;100.00
42415;BME280;28058;46.344;17.786;2022-08-19T04:09:22;118336.50;;;-144.97;100.00
42415;BME280;28058;46.344;17.786;2022-08-19T04:11:52;118336.50;;;-144.97;99.68
42415;BME280;28058;46.344;17.786;2022-08-19T04:14:27;118336.50;;;-144.97;99.24
42415;BME280;28058;46.344;17.786;2022-08-19T04:16:58;118336.50;;;-144.97;98.41
42415;BME280;28058;46.344;17.786;2022-08-19T04:19:25;118336.50;;;-144.97;98.25
42415;BME280;28058;46.344;17.786;2022-08-19T04:21:54;118336.50;;;-144.97;96.50
42415;BME280;28058;46.344;17.786;2022-08-19T04:24:21;118336.50;;;-144.97;96.07
42415;BME280;28058;46.344;17.786;2022-08-19T04:26:49;118336.50;;;-144.97;94.71
42415;BME280;28058;46.344;17.786;2022-08-19T04:29:22;118336.50;;;-144.97;94.23
42415;BME280;28058;46.344;17.786;2022-08-19T04:31:53;118336.50;;;-144.97;92.01
42415;BME280;28058;46.344;17.786;2022-08-19T04:34:22;118336.50;;;-144.97;92.34
42415;BME280;28058;46.344;17.786;2022-08-19T04:36:51;118336.50;;;-144.97;91.37
42415;BME280;28058;46.344;17.786;2022-08-19T04:39:22;118336.50;;;-144.97;90.35
42415;BME280;28058;46.344;17.786;2022-08-19T04:41:49;118336.50;;;-144.97;89.63
42415;BME280;28058;46.344;17.786;2022-08-19T04:44:35;118336.50;;;-144.97;88.42
42415;BME280;28058;46.344;17.786;2022-08-19T04:47:11;118336.50;;;-144.97;87.65
42415;BME280;28058;46.344;17.786;2022-08-19T04:49:38;118336.50;;;-144.97;88.70
42415;BME280;28058;46.344;17.786;2022-08-19T04:52:05;118336.50;;;-144.97;87.46
42415;BME280;28058;46.344;17.786;2022-08-19T04:54:32;118336.50;;;-144.97;85.72
42415;BME280;28058;46.344;17.786;2022-08-19T04:57:06;118336.50;;;-144.97;86.26
42415;BME280;28058;46.344;17.786;2022-08-19T04:59:34;118336.50;;;-144.97;85.97
42415;BME280;28058;46.344;17.786;2022-08-19T05:02:02;118336.50;;;-144.97;83.69
42415;BME280;28058;46.344;17.786;2022-08-19T05:04:28;118336.50;;;-144.97;84.35
42415;BME280;28058;46.344;17.786;2022-08-19T05:06:57;118336.50;;;-144.97;85.55
42415;BME280;28058;46.344;17.786;2022-08-19T05:09:27;118336.50;;;-144.97;84.94
42415;BME280;28058;46.344;17.786;2022-08-19T05:12:14;118336.50;;;-144.97;83.79
42415;BME280;28058;46.344;17.786;2022-08-19T05:14:42;118336.50;;;-144.97;82.19
42415;BME280;28058;46.344;17.786;2022-08-19T05:17:09;118336.50;;;-144.97;80.45
42415;BME280;28058;46.344;17.786;2022-08-19T05:19:54;118336.50;;;-144.97;80.84
42415;BME280;28058;46.344;17.786;2022-08-19T05:22:41;118336.50;;;-144.97;80.87
42415;BME280;28058;46.344;17.786;2022-08-19T05:25:12;118336.50;;;-144.97;79.78
42415;BME280;28058;46.344;17.786;2022-08-19T05:27:41;118336.50;;;-144.97;77.98
42415;BME280;28058;46.344;17.786;2022-08-19T05:30:10;118336.50;;;-144.97;76.90
42415;BME280;28058;46.344;17.786;2022-08-19T05:32:39;118336.50;;;-144.97;78.30
42415;BME280;28058;46.344;17.786;2022-08-19T05:35:06;118336.50;;;-144.97;77.51
42415;BME280;28058;46.344;17.786;2022-08-19T05:37:33;118336.50;;;-144.97;75.82
42415;BME280;28058;46.344;17.786;2022-08-19T05:40:00;118336.50;;;-144.97;74.15
42415;BME280;28058;46.344;17.786;2022-08-19T05:42:27;118336.50;;;-144.97;70.50
42415;BME280;28058;46.344;17.786;2022-08-19T05:44:54;118336.50;;;-144.97;67.77
42415;BME280;28058;46.344;17.786;2022-08-19T05:47:24;118336.50;;;-144.97;69.50
42415;BME280;28058;46.344;17.786;2022-08-19T05:49:51;118336.50;;;-144.97;68.82
42415;BME280;28058;46.344;17.786;2022-08-19T05:52:18;118336.50;;;-144.97;70.51
42415;BME280;28058;46.344;17.786;2022-08-19T05:54:52;118336.50;;;-144.97;70.68
42415;BME280;28058;46.344;17.786;2022-08-19T05:57:23;118336.50;;;-144.97;72.02
42415;BME280;28058;46.344;17.786;2022-08-19T05:59:50;118336.50;;;-144.97;72.20
42415;BME280;28058;46.344;17.786;2022-08-19T06:02:28;118336.50;;;-144.97;73.40
42415;BME280;28058;46.344;17.786;2022-08-19T06:04:57;118336.50;;;-144.97;74.15
42415;BME280;28058;46.344;17.786;2022-08-19T06:07:25;118336.50;;;-144.97;74.74
42415;BME280;28058;46.344;17.786;2022-08-19T06:09:52;118336.50;;;-144.97;72.86
42415;BME280;28058;46.344;17.786;2022-08-19T06:12:30;118336.50;;;-144.97;71.07
42415;BME280;28058;46.344;17.786;2022-08-19T06:15:01;118336.50;;;-144.97;69.56
42415;BME280;28058;46.344;17.786;2022-08-19T06:17:29;118336.50;;;-144.97;66.22
42415;BME280;28058;46.344;17.786;2022-08-19T06:19:57;118336.50;;;-144.97;65.60
42415;BME280;28058;46.344;17.786;2022-08-19T06:22:26;118336.50;;;-144.97;68.46
42415;BME280;28058;46.344;17.786;2022-08-19T06:24:55;118336.50;;;-144.97;67.83
42415;BME280;28058;46.344;17.786;2022-08-19T06:27:22;118336.50;;;-144.97;69.08
42415;BME280;28058;46.344;17.786;2022-08-19T06:29:49;118336.50;;;-144.97;69.50
42415;BME280;28058;46.344;17.786;2022-08-19T06:32:17;118336.50;;;-144.97;71.18
42415;BME280;28058;46.344;17.786;2022-08-19T06:34:45;118336.50;;;-144.97;72.72
42415;BME280;28058;46.344;17.786;2022-08-19T06:37:12;118336.50;;;-144.97;73.79
42415;BME280;28058;46.344;17.786;2022-08-19T06:39:40;118336.50;;;-144.97;73.97
42415;BME280;28058;46.344;17.786;2022-08-19T06:42:07;118336.50;;;-144.97;73.23
42415;BME280;28058;46.344;17.786;2022-08-19T06:44:40;118336.50;;;-144.97;66.48
42415;BME280;28058;46.344;17.786;2022-08-19T06:47:11;118336.50;;;-144.97;57.66
42415;BME280;28058;46.344;17.786;2022-08-19T06:49:40;118336.50;;;-144.97;58.26
42415;BME280;28058;46.344;17.786;2022-08-19T06:52:08;118336.50;;;-144.97;54.75
42415;BME280;28058;46.344;17.786;2022-08-19T06:54:40;118336.50;;;-144.97;48.75
42415;BME280;28058;46.344;17.786;2022-08-19T06:57:22;118336.50;;;-144.97;44.43
42415;BME280;28058;46.344;17.786;2022-08-19T06:59:49;118336.50;;;-144.97;44.43
42415;BME280;28058;46.344;17.786;2022-08-19T07:02:16;118336.50;;;-144.97;50.89
42415;BME280;28058;46.344;17.786;2022-08-19T07:04:43;118336.50;;;-144.97;45.60
42415;BME280;28058;46.344;17.786;2022-08-19T07:07:13;118336.50;;;-144.97;42.03
42415;BME280;28058;46.344;17.786;2022-08-19T07:09:46;118336.50;;;-144.97;39.58
42415;BME280;28058;46.344;17.786;2022-08-19T07:12:29;118336.50;;;-144.97;39.28
42415;BME280;28058;46.344;17.786;2022-08-19T07:15:03;118336.50;;;-144.97;38.70
42415;BME280;28058;46.344;17.786;2022-08-19T07:17:30;118336.50;;;-144.97;36.47
42415;BME280;28058;46.344;17.786;2022-08-19T07:20:01;118336.50;;;-144.97;35.59
42415;BME280;28058;46.344;17.786;2022-08-19T07:22:33;118336.50;;;-144.97;34.43
42415;BME280;28058;46.344;17.786;2022-08-19T07:25:00;118336.50;;;-144.97;35.05
42415;BME280;28058;46.344;17.786;2022-08-19T07:27:30;118336.50;;;-144.97;33.72
42415;BME280;28058;46.344;17.786;2022-08-19T07:29:59;118336.50;;;-144.97;32.25
42415;BME280;28058;46.344;17.786;2022-08-19T07:39:41;118336.50;;;-144.97;32.31
42415;BME280;28058;46.344;17.786;2022-08-19T07:42:10;118336.50;;;-144.97;32.53
42415;BME280;28058;46.344;17.786;2022-08-19T07:44:39;118336.50;;;-144.97;33.40
42415;BME280;28058;46.344;17.786;2022-08-19T07:47:07;118336.50;;;-144.97;33.71
42415;BME280;28058;46.344;17.786;2022-08-19T07:49:54;118336.50;;;-144.97;34.16
42415;BME280;28058;46.344;17.786;2022-08-19T07:52:21;118336.50;;;-144.97;35.66
42415;BME280;28058;46.344;17.786;2022-08-19T07:54:48;118336.50;;;-144.97;36.10
42415;BME280;28058;46.344;17.786;2022-08-19T07:57:16;118336.50;;;-144.97;35.32
42415;BME280;28058;46.344;17.786;2022-08-19T07:59:43;118336.50;;;-144.97;36.24
42415;BME280;28058;46.344;17.786;2022-08-19T08:02:10;118336.50;;;-144.97;35.10
42415;BME280;28058;46.344;17.786;2022-08-19T08:04:37;118336.50;;;-144.97;35.16
42415;BME280;28058;46.344;17.786;2022-08-19T08:07:22;118336.50;;;-144.97;36.17
42415;BME280;28058;46.344;17.786;2022-08-19T08:10:12;118336.50;;;-144.97;37.30
42415;BME280;28058;46.344;17.786;2022-08-19T08:12:46;118336.50;;;-144.97;38.02
42415;BME280;28058;46.344;17.786;2022-08-19T08:15:33;118336.50;;;-144.97;37.04
42415;BME280;28058;46.344;17.786;2022-08-19T08:18:07;118336.50;;;-144.97;37.94
42415;BME280;28058;46.344;17.786;2022-08-19T08:20:34;118336.50;;;-144.97;39.19
42415;BME280;28058;46.344;17.786;2022-08-19T08:23:01;118336.50;;;-144.97;38.91
42415;BME280;28058;46.344;17.786;2022-08-19T08:25:47;118336.50;;;-144.97;35.95
42415;BME280;28058;46.344;17.786;2022-08-19T08:28:16;118336.50;;;-144.97;33.97
42415;BME280;28058;46.344;17.786;2022-08-19T08:30:44;118336.50;;;-144.97;31.77
42415;BME280;28058;46.344;17.786;2022-08-19T08:33:13;118336.50;;;-144.97;30.65
42415;BME280;28058;46.344;17.786;2022-08-19T08:35:40;118336.50;;;-144.97;30.67
42415;BME280;28058;46.344;17.786;2022-08-19T08:38:12;118336.50;;;-144.97;30.16
42415;BME280;28058;46.344;17.786;2022-08-19T08:40:50;118336.50;;;-144.97;29.48
42415;BME280;28058;46.344;17.786;2022-08-19T08:43:38;118336.50;;;-144.97;29.46
42415;BME280;28058;46.344;17.786;2022-08-19T08:46:14;118336.50;;;-144.97;28.80
42415;BME280;28058;46.344;17.786;2022-08-19T08:49:05;118336.50;;;-144.97;28.70
42415;BME280;28058;46.344;17.786;2022-08-19T08:51:49;118336.50;;;-144.97;28.31
42415;BME280;28058;46.344;17.786;2022-08-19T08:54:31;118336.50;;;-144.97;29.01
42415;BME280;28058;46.344;17.786;2022-08-19T08:57:04;118336.50;;;-144.97;29.13
42415;BME280;28058;46.344;17.786;2022-08-19T08:59:35;118336.50;;;-144.97;28.19
42415;BME280;28058;46.344;17.786;2022-08-19T09:02:03;118336.50;;;-144.97;28.04
42415;BME280;28058;46.344;17.786;2022-08-19T09:04:30;118336.50;;;-144.97;27.68
42415;BME280;28058;46.344;17.786;2022-08-19T09:15:40;118336.50;;;-144.97;27.92
42415;BME280;28058;46.344;17.786;2022-08-19T09:18:09;118336.50;;;-144.97;28.12
42415;BME280;28058;46.344;17.786;2022-08-19T09:20:45;118336.50;;;-144.97;28.27
42415;BME280;28058;46.344;17.786;2022-08-19T09:23:14;118336.50;;;-144.97;28.85
42415;BME280;28058;46.344;17.786;2022-08-19T09:25:41;118336.50;;;-144.97;29.99
42415;BME280;28058;46.344;17.786;2022-08-19T09:28:08;118336.50;;;-144.97;30.68
42415;BME280;28058;46.344;17.786;2022-08-19T09:30:48;118336.50;;;-144.97;31.65
42415;BME280;28058;46.344;17.786;2022-08-19T09:33:14;118336.50;;;-144.97;32.81
42415;BME280;28058;46.344;17.786;2022-08-19T09:35:42;118336.50;;;-144.97;33.32
42415;BME280;28058;46.344;17.786;2022-08-19T09:38:20;118336.50;;;-144.97;33.67
42415;BME280;28058;46.344;17.786;2022-08-19T09:40:47;118336.50;;;-144.97;33.59
42415;BME280;28058;46.344;17.786;2022-08-19T09:43:13;118336.50;;;-144.97;34.01
42415;BME280;28058;46.344;17.786;2022-08-19T09:45:58;118336.50;;;-144.97;35.56
42415;BME280;28058;46.344;17.786;2022-08-19T09:48:26;118336.50;;;-144.97;35.84
42415;BME280;28058;46.344;17.786;2022-08-19T09:50:53;118336.50;;;-144.97;36.46
42415;BME280;28058;46.344;17.786;2022-08-19T09:53:21;118336.50;;;-144.97;37.11
42415;BME280;28058;46.344;17.786;2022-08-19T09:55:51;118336.50;;;-144.97;37.94
42415;BME280;28058;46.344;17.786;2022-08-19T09:58:18;118336.50;;;-144.97;38.50
42415;BME280;28058;46.344;17.786;2022-08-19T10:00:51;118336.50;;;-144.97;38.40
42415;BME280;28058;46.344;17.786;2022-08-19T10:03:18;118336.50;;;-144.97;39.06
42415;BME280;28058;46.344;17.786;2022-08-19T10:05:45;118336.50;;;-144.97;39.20
42415;BME280;28058;46.344;17.786;2022-08-19T10:08:28;118336.50;;;-144.97;38.72
42415;BME280;28058;46.344;17.786;2022-08-19T10:10:56;118336.50;;;-144.97;38.06
42415;BME280;28058;46.344;17.786;2022-08-19T10:13:26;118336.50;;;-144.97;39.68
42415;BME280;28058;46.344;17.786;2022-08-19T10:15:56;118336.50;;;-144.97;40.23
42415;BME280;28058;46.344;17.786;2022-08-19T10:18:25;118336.50;;;-144.97;40.20
42415;BME280;28058;46.344;17.786;2022-08-19T10:21:01;118336.50;;;-144.97;39.84
42415;BME280;28058;46.344;17.786;2022-08-19T10:23:28;118336.50;;;-144.97;41.08
42415;BME280;28058;46.344;17.786;2022-08-19T10:26:00;118336.50;;;-144.97;40.73
42415;BME280;28058;46.344;17.786;2022-08-19T10:28:27;118336.50;;;-144.97;41.09
42415;BME280;28058;46.344;17.786;2022-08-19T10:30:55;118336.50;;;-144.97;41.59
42415;BME280;28058;46.344;17.786;2022-08-19T10:33:22;118336.50;;;-144.97;41.51
42415;BME280;28058;46.344;17.786;2022-08-19T10:36:17;118336.50;;;-144.97;41.31
42415;BME280;28058;46.344;17.786;2022-08-19T10:38:46;118336.50;;;-144.97;41.81
42415;BME280;28058;46.344;17.786;2022-08-19T10:41:27;118336.50;;;-144.97;40.68
42415;BME280;28058;46.344;17.786;2022-08-19T10:43:57;118336.50;;;-144.97;40.75
42415;BME280;28058;46.344;17.786;2022-08-19T10:46:30;118336.50;;;-144.97;39.79
42415;BME280;28058;46.344;17.786;2022-08-19T10:49:00;118336.50;;;-144.97;36.97
42415;BME280;28058;46.344;17.786;2022-08-19T10:51:28;118336.50;;;-144.97;36.54
42415;BME280;28058;46.344;17.786;2022-08-19T10:54:14;118336.50;;;-144.97;36.89
42415;BME280;28058;46.344;17.786;2022-08-19T10:56:41;118336.50;;;-144.97;37.02
42415;BME280;28058;46.344;17.786;2022-08-19T10:59:26;118336.50;;;-144.97;36.93
42415;BME280;28058;46.344;17.786;2022-08-19T11:02:02;118336.50;;;-144.97;36.77
42415;BME280;28058;46.344;17.786;2022-08-19T11:04:31;118336.50;;;-144.97;35.90
42415;BME280;28058;46.344;17.786;2022-08-19T11:06:59;118336.50;;;-144.97;35.75
42415;BME280;28058;46.344;17.786;2022-08-19T11:09:26;118336.50;;;-144.97;39.56
42415;BME280;28058;46.344;17.786;2022-08-19T11:12:00;118336.50;;;-144.97;38.95
42415;BME280;28058;46.344;17.786;2022-08-19T11:14:28;118336.50;;;-144.97;37.95
42415;BME280;28058;46.344;17.786;2022-08-19T11:16:59;118336.50;;;-144.97;36.90
42415;BME280;28058;46.344;17.786;2022-08-19T11:19:26;118336.50;;;-144.97;36.54
42415;BME280;28058;46.344;17.786;2022-08-19T11:21:53;118336.50;;;-144.97;36.63
42415;BME280;28058;46.344;17.786;2022-08-19T11:24:24;118336.50;;;-144.97;36.44
42415;BME280;28058;46.344;17.786;2022-08-19T11:26:53;118336.50;;;-144.97;36.41
42415;BME280;28058;46.344;17.786;2022-08-19T11:29:24;118336.50;;;-144.97;37.25
42415;BME280;28058;46.344;17.786;2022-08-19T11:31:54;118336.50;;;-144.97;37.29
42415;BME280;28058;46.344;17.786;2022-08-19T11:34:23;118336.50;;;-144.97;37.44
42415;BME280;28058;46.344;17.786;2022-08-19T11:36:53;118336.50;;;-144.97;37.74
42415;BME280;28058;46.344;17.786;2022-08-19T11:39:28;118336.50;;;-144.97;38.86
42415;BME280;28058;46.344;17.786;2022-08-19T11:42:00;118336.50;;;-144.97;39.28
42415;BME280;28058;46.344;17.786;2022-08-19T11:44:29;118336.50;;;-144.97;40.35
42415;BME280;28058;46.344;17.786;2022-08-19T11:46:56;118336.50;;;-144.97;40.64
42415;BME280;28058;46.344;17.786;2022-08-19T11:49:34;118336.50;;;-144.97;41.51
42415;BME280;28058;46.344;17.786;2022-08-19T11:52:02;118336.50;;;-144.97;41.87
42415;BME280;28058;46.344;17.786;2022-08-19T11:54:29;118336.50;;;-144.97;42.58
42415;BME280;28058;46.344;17.786;2022-08-19T11:56:57;118336.50;;;-144.97;43.29
42415;BME280;28058;46.344;17.786;2022-08-19T11:59:24;118336.50;;;-144.97;43.15
42415;BME280;28058;46.344;17.786;2022-08-19T12:01:51;118336.50;;;-144.97;43.78
42415;BME280;28058;46.344;17.786;2022-08-19T12:04:20;118336.50;;;-144.97;43.98
42415;BME280;28058;46.344;17.786;2022-08-19T12:06:46;118336.50;;;-144.97;45.23
42415;BME280;28058;46.344;17.786;2022-08-19T12:09:13;118336.50;;;-144.97;45.80
42415;BME280;28058;46.344;17.786;2022-08-19T12:11:41;118336.50;;;-144.97;46.90
42415;BME280;28058;46.344;17.786;2022-08-19T12:14:10;118336.50;;;-144.97;47.69
42415;BME280;28058;46.344;17.786;2022-08-19T12:16:40;118336.50;;;-144.97;49.17
42415;BME280;28058;46.344;17.786;2022-08-19T12:19:16;118336.50;;;-144.97;48.17
42415;BME280;28058;46.344;17.786;2022-08-19T12:21:48;118336.50;;;-144.97;56.93
42415;BME280;28058;46.344;17.786;2022-08-19T12:24:15;118336.50;;;-144.97;69.59
42415;BME280;28058;46.344;17.786;2022-08-19T12:26:42;118336.50;;;-144.97;73.05
42415;BME280;28058;46.344;17.786;2022-08-19T12:29:19;118336.50;;;-144.97;73.08
42415;BME280;28058;46.344;17.786;2022-08-19T12:31:49;118336.50;;;-144.97;80.41
42415;BME280;28058;46.344;17.786;2022-08-19T12:34:16;118336.50;;;-144.97;87.91
42415;BME280;28058;46.344;17.786;2022-08-19T12:36:43;118336.50;;;-144.97;90.03
42415;BME280;28058;46.344;17.786;2022-08-19T12:39:10;118336.50;;;-144.97;85.41
42415;BME280;28058;46.344;17.786;2022-08-19T12:41:39;118336.50;;;-144.97;93.58
42415;BME280;28058;46.344;17.786;2022-08-19T12:44:20;118336.50;;;-144.97;89.98
42415;BME280;28058;46.344;17.786;2022-08-19T12:46:58;118336.50;;;-144.97;92.68
42415;BME280;28058;46.344;17.786;2022-08-19T12:49:28;118336.50;;;-144.97;82.17
42415;BME280;28058;46.344;17.786;2022-08-19T12:52:15;118336.50;;;-144.97;79.66
42415;BME280;28058;46.344;17.786;2022-08-19T12:54:48;118336.50;;;-144.97;78.87
42415;BME280;28058;46.344;17.786;2022-08-19T12:57:24;118336.50;;;-144.97;75.45